Flight Track Log - Related Links

Times and Time Zones

All times are in EDT time to prevent confusion due to time zone crossing. See the ASQ5958 flight status page for this flight to view local times or setup timezone preferences in your user account.

Time Position Orientation Groundspeed Altitude Reporting Facility
EDT Latitude Longitude Course Direction KTS MPH feet Rate Location/Type
Tue 10:02:35 AM 42.1972 -83.3608 223° Southwest 165 190 1,300  Level Cleveland Center
Tue 10:03:23 AM 42.1694 -83.3961 223° Southwest 210 242 2,800 2,233 Climbing Cleveland Center
Tue 10:05:35 AM 42.1489 -83.5436 259° West 253 291 8,000 2,406 Climbing Cleveland Center
Tue 10:06:35 AM 42.1825 -83.6181 301° West 253 291 10,500 2,100 Climbing Cleveland Center
Tue 10:07:35 AM 42.2236 -83.7181 299° West 277 319 12,200 1,850 Climbing Cleveland Center
Tue 10:08:35 AM 42.2647 -83.8156 300° West 293 337 14,200 2,200 Climbing Cleveland Center
Tue 10:09:35 AM 42.3058 -83.9103 300° West 298 343 16,600 2,200 Climbing Cleveland Center
Tue 10:10:35 AM 42.3467 -84.0053 300° West 298 343 18,600 1,950 Climbing Cleveland Center
Tue 10:11:35 AM 42.3856 -84.1000 299° West 298 343 20,500 1,800 Climbing Cleveland Center
Tue 10:12:35 AM 42.4242 -84.1981 298° West 298 343 22,200 1,500 Climbing Cleveland Center
Tue 10:13:35 AM 42.4311 -84.3053 275° West 290 334 23,500 900 Climbing Cleveland Center
Tue 10:14:35 AM 42.4314 -84.4264 270° West 301 346 24,000 250 Climbing Cleveland Center
Tue 10:15:35 AM 42.4353 -84.5617 272° West 334 384 24,000  Level Cleveland Center
Tue 10:16:58 AM 42.4414 -84.7403 273° West 382 440 24,000  Level Chicago Center
Tue 10:18:00 AM 42.4453 -84.8844 272° West 384 442 24,000  Level Chicago Center
Tue 10:19:02 AM 42.4489 -85.0664 272° West 400 460 24,000  Level Chicago Center
Tue 10:20:04 AM 42.4519 -85.2231 272° West 414 476 24,000  Level Chicago Center
Tue 10:21:05 AM 42.4550 -85.3797 272° West 416 479 24,000  Level Chicago Center
Tue 10:22:07 AM 42.4578 -85.5392 271° West 422 486 24,000 -145 Level Chicago Center
Tue 10:23:09 AM 42.4606 -85.6944 271° West 413 475 23,700 -871 Descending Chicago Center
Tue 10:24:11 AM 42.4619 -85.8506 271° West 413 475 22,200 -1,200 Descending Chicago Center
Tue 10:26:14 AM 42.4650 -86.1550 271° West 399 459 20,000 -714 Descending Chicago Center
Tue 10:27:16 AM 42.4642 -86.3000 270° West 387 445 20,000  Level Chicago Center
Tue 10:28:17 AM 42.4622 -86.4750 269° West 387 445 20,000 -1,122 Level Chicago Center
Tue 10:29:19 AM 42.4622 -86.6183 270° West 382 440 17,700 -2,516 Descending Chicago Center
Tue 10:30:21 AM 42.4608 -86.7556 269° West 367 422 14,800 -2,806 Descending Chicago Center
Tue 10:31:23 AM 42.4589 -86.8833 269° West 349 402 11,900 -2,293 Descending Chicago Center
Tue 10:32:24 AM 42.4581 -87.0114 270° West 342 394 10,100 -927 Descending Chicago Center
Tue 10:33:26 AM 42.4508 -87.1328 265° West 326 375 10,000 -435 Descending Chicago Center
Tue 10:34:28 AM 42.4244 -87.2258 249° West 268 308 9,200 -532 Descending Chicago Center
Tue 10:35:30 AM 42.3903 -87.3269 245° Southwest 250 288 8,900 -488 Descending Chicago Center
Tue 10:36:31 AM 42.3639 -87.4108 247° West 253 291 8,200 -683 Descending Chicago Center
Tue 10:37:33 AM 42.3333 -87.4953 244° Southwest 250 288 7,500 -581 Descending Chicago Center
Tue 10:38:35 AM 42.3028 -87.5664 240° Southwest 229 264 7,000 -244 Descending Chicago Center
Tue 10:39:36 AM 42.2536 -87.6094 213° Southwest 212 244 7,000 -537 Level Chicago Center
Tue 10:40:38 AM 42.2028 -87.6719 222° Southwest 206 237 5,900 -1,065 Descending Chicago Center
Tue 10:41:40 AM 42.1628 -87.7136 218° Southwest 186 214 4,800 -1,024 Descending Chicago Center
Tue 10:42:41 AM 42.1233 -87.7578 220° Southwest 186 214 3,800 -984 Descending Chicago Center

Login

Don't have an account? Register now (free) for customized features, flight alerts, and more!